createdAt,value
2022-12-17T00:00:41.979Z,42.27
2022-12-17T00:03:29.275Z,42.10
2022-12-17T00:06:15.315Z,37.10
2022-12-17T00:09:01.180Z,38.00
2022-12-17T00:11:47.036Z,34.27
2022-12-17T00:14:32.949Z,38.90
2022-12-17T00:17:18.664Z,37.50
2022-12-17T00:20:04.639Z,34.10
2022-12-17T00:22:50.577Z,41.97
2022-12-17T00:25:36.406Z,38.80
2022-12-17T00:28:22.406Z,40.83
2022-12-17T00:31:11.869Z,44.90
2022-12-17T00:33:57.530Z,37.33
2022-12-17T00:36:43.532Z,35.63
2022-12-17T00:39:29.434Z,36.77
2022-12-17T00:42:15.342Z,39.67
2022-12-17T00:45:01.273Z,40.73
2022-12-17T00:47:47.104Z,32.87
2022-12-17T00:50:32.966Z,43.07
2022-12-17T00:53:18.789Z,46.13
2022-12-17T00:56:04.634Z,46.50
2022-12-17T00:58:50.816Z,36.57
2022-12-17T01:01:37.766Z,40.93
2022-12-17T01:04:23.703Z,41.07
2022-12-17T01:07:09.511Z,39.30
2022-12-17T01:09:55.757Z,39.37
2022-12-17T01:12:41.698Z,39.23
2022-12-17T01:15:27.792Z,41.03
2022-12-17T01:18:13.733Z,41.07
2022-12-17T01:20:59.662Z,44.37
2022-12-17T01:23:45.629Z,38.83
2022-12-17T01:26:31.586Z,38.53
2022-12-17T01:29:17.567Z,39.27
2022-12-17T01:32:03.495Z,38.27
2022-12-17T01:34:49.370Z,34.07
2022-12-17T01:37:35.391Z,45.37
2022-12-17T01:40:21.222Z,48.00
2022-12-17T01:43:07.136Z,41.53
2022-12-17T01:45:58.288Z,44.83
2022-12-17T01:48:49.278Z,36.93
2022-12-17T01:51:35.651Z,39.87
2022-12-17T01:54:22.053Z,48.67
2022-12-17T01:57:07.964Z,41.87
2022-12-17T02:00:06.780Z,35.13
2022-12-17T02:02:52.857Z,35.43
2022-12-17T02:05:42.261Z,43.23
2022-12-17T02:08:28.138Z,36.10
2022-12-17T02:11:19.526Z,42.33
2022-12-17T02:14:12.566Z,36.13
2022-12-17T02:17:02.955Z,35.80
2022-12-17T02:20:03.864Z,43.83
2022-12-17T02:22:52.195Z,35.40
2022-12-17T02:26:01.083Z,36.97
2022-12-17T02:28:47.569Z,42.37
2022-12-17T02:31:34.971Z,45.63
2022-12-17T02:34:21.310Z,40.10
2022-12-17T02:37:07.210Z,46.10
2022-12-17T02:39:53.349Z,48.53
2022-12-17T02:42:42.474Z,39.27
2022-12-17T02:45:28.971Z,37.60
2022-12-17T02:48:15.558Z,36.87
2022-12-17T02:51:01.607Z,46.20
2022-12-17T02:53:47.344Z,43.80
2022-12-17T02:56:33.411Z,45.70
2022-12-17T02:59:19.311Z,42.13
2022-12-17T03:02:05.428Z,37.30
2022-12-17T03:04:51.482Z,52.23
2022-12-17T03:07:37.328Z,47.73
2022-12-17T03:10:23.212Z,39.90
2022-12-17T03:13:09.138Z,40.87
2022-12-17T03:15:54.934Z,45.93
2022-12-17T03:18:40.859Z,40.37
2022-12-17T03:21:26.624Z,44.53
2022-12-17T03:24:12.206Z,48.90
2022-12-17T03:26:58.111Z,34.63
2022-12-17T03:29:43.960Z,41.33
2022-12-17T03:32:29.987Z,48.10
2022-12-17T03:35:15.951Z,43.10
2022-12-17T03:38:01.823Z,41.37
2022-12-17T03:40:47.813Z,38.93
2022-12-17T03:43:33.843Z,43.97
2022-12-17T03:46:19.942Z,42.13
2022-12-17T03:49:05.918Z,55.23
2022-12-17T03:51:51.726Z,34.53
2022-12-17T03:54:37.510Z,44.97
2022-12-17T03:57:23.480Z,42.07
2022-12-17T04:00:09.348Z,41.70
2022-12-17T04:02:55.501Z,47.10
2022-12-17T04:05:41.323Z,55.67
2022-12-17T04:08:27.201Z,49.70
2022-12-17T04:11:13.112Z,35.30
2022-12-17T04:13:59.069Z,53.63
2022-12-17T04:16:45.010Z,41.93
2022-12-17T04:19:30.752Z,45.23
2022-12-17T04:22:33.461Z,41.53
2022-12-17T04:25:18.967Z,43.30
2022-12-17T04:28:04.882Z,43.23
2022-12-17T04:30:50.974Z,46.10
2022-12-17T04:33:37.268Z,41.03
2022-12-17T04:36:23.491Z,41.07
2022-12-17T04:39:09.506Z,50.47
2022-12-17T04:41:55.441Z,45.93
2022-12-17T04:44:41.409Z,46.13
2022-12-17T04:47:27.347Z,43.57
2022-12-17T04:50:13.241Z,42.73
2022-12-17T04:52:59.143Z,40.70
2022-12-17T04:55:45.047Z,51.63
2022-12-17T04:58:31.067Z,47.93
2022-12-17T05:01:16.928Z,50.83
2022-12-17T05:04:02.702Z,35.87
2022-12-17T05:06:48.591Z,42.07
2022-12-17T05:09:34.528Z,49.10
2022-12-17T05:12:20.438Z,40.67
2022-12-17T05:15:06.406Z,45.33
2022-12-17T05:17:52.293Z,42.37
2022-12-17T05:20:38.358Z,40.40
2022-12-17T05:23:27.464Z,37.43
2022-12-17T05:26:23.084Z,45.20
2022-12-17T05:29:15.425Z,44.57
2022-12-17T05:32:01.956Z,42.70
2022-12-17T05:34:47.948Z,47.03
2022-12-17T05:37:33.831Z,38.63
2022-12-17T05:40:19.605Z,45.20
2022-12-17T05:43:15.260Z,37.87
2022-12-17T05:46:01.853Z,40.67
2022-12-17T05:48:47.806Z,49.60
2022-12-17T05:51:38.468Z,50.13
2022-12-17T05:54:25.166Z,58.60
2022-12-17T05:57:11.015Z,50.07
2022-12-17T05:59:56.785Z,40.47
2022-12-17T06:02:42.976Z,47.90
2022-12-17T06:05:28.853Z,42.43
2022-12-17T06:08:21.798Z,38.70
2022-12-17T06:11:07.722Z,55.63
2022-12-17T06:13:53.789Z,42.30
2022-12-17T06:16:40.087Z,42.77
2022-12-17T06:19:26.112Z,41.63
2022-12-17T06:22:11.995Z,40.07
2022-12-17T06:24:57.840Z,48.77
2022-12-17T06:27:43.877Z,48.60
2022-12-17T06:30:29.950Z,47.90
2022-12-17T06:33:25.723Z,48.83
2022-12-17T06:36:18.098Z,49.87
2022-12-17T06:39:07.160Z,45.03
2022-12-17T06:41:53.038Z,44.73
2022-12-17T06:44:45.945Z,44.90
2022-12-17T06:47:31.701Z,50.73
2022-12-17T06:50:17.652Z,43.10
2022-12-17T06:53:03.489Z,54.87
2022-12-17T06:55:49.526Z,40.43
2022-12-17T06:58:35.372Z,43.90
2022-12-17T07:01:21.541Z,44.53
2022-12-17T07:04:07.260Z,43.43
2022-12-17T07:06:53.194Z,52.37
2022-12-17T07:09:39.092Z,51.57
2022-12-17T07:12:25.175Z,49.63
2022-12-17T07:15:11.097Z,58.90
2022-12-17T07:17:57.068Z,45.73
2022-12-17T07:20:43.004Z,52.93
2022-12-17T07:23:28.921Z,43.10
2022-12-17T07:26:16.264Z,47.13
2022-12-17T07:29:02.169Z,45.77
2022-12-17T07:31:48.166Z,42.20
2022-12-17T07:34:34.040Z,49.30
2022-12-17T07:37:20.753Z,60.63
2022-12-17T07:40:06.830Z,48.13
2022-12-17T07:42:52.747Z,59.90
2022-12-17T07:45:38.758Z,52.80
2022-12-17T07:48:24.899Z,45.77
2022-12-17T07:51:10.827Z,53.80
2022-12-17T07:54:10.385Z,44.93
2022-12-17T07:56:56.548Z,46.97
2022-12-17T07:59:42.355Z,44.20
2022-12-17T08:02:29.559Z,51.80
2022-12-17T08:05:15.249Z,50.33
2022-12-17T08:08:01.278Z,59.97
2022-12-17T08:10:47.235Z,51.07
2022-12-17T08:13:33.285Z,49.83
2022-12-17T08:16:19.068Z,53.93
2022-12-17T08:19:21.767Z,54.23
2022-12-17T08:22:07.282Z,46.90
2022-12-17T08:24:53.222Z,51.50
2022-12-17T08:27:39.016Z,50.93
2022-12-17T08:30:25.076Z,68.17
2022-12-17T08:33:10.788Z,56.83
2022-12-17T08:35:56.547Z,69.37
2022-12-17T08:38:42.390Z,60.37
2022-12-17T08:41:28.228Z,73.30
2022-12-17T08:44:14.134Z,62.37
2022-12-17T08:47:00.005Z,70.07
2022-12-17T08:49:45.959Z,70.00
2022-12-17T08:52:31.946Z,73.73
2022-12-17T08:55:17.801Z,66.00
2022-12-17T08:58:11.479Z,65.20
2022-12-17T09:00:57.457Z,64.80
2022-12-17T09:03:43.325Z,81.57
2022-12-17T09:06:29.172Z,74.90
2022-12-17T09:09:15.061Z,68.73
2022-12-17T09:12:01.595Z,75.40
2022-12-17T09:14:47.468Z,84.53
2022-12-17T09:17:33.452Z,72.30
2022-12-17T09:20:19.482Z,71.37
2022-12-17T09:23:05.344Z,69.43
2022-12-17T09:25:55.055Z,57.07
2022-12-17T09:28:43.737Z,61.87
2022-12-17T09:31:33.910Z,60.40
2022-12-17T09:34:23.046Z,63.77
2022-12-17T09:37:13.430Z,74.90
2022-12-17T09:39:59.284Z,59.77
2022-12-17T09:43:07.944Z,81.43
2022-12-17T09:46:07.549Z,76.77
2022-12-17T09:49:02.529Z,65.67
2022-12-17T09:51:48.926Z,81.77
2022-12-17T09:54:35.019Z,80.63
2022-12-17T09:57:20.942Z,84.90
2022-12-17T10:00:07.169Z,50.93
2022-12-17T10:02:53.214Z,57.80
2022-12-17T10:05:43.121Z,58.83
2022-12-17T10:08:31.021Z,74.50
2022-12-17T10:11:20.400Z,55.87
2022-12-17T10:14:06.153Z,45.80
2022-12-17T10:16:59.110Z,48.37
2022-12-17T10:19:50.625Z,42.57
2022-12-17T10:22:39.402Z,40.70
2022-12-17T10:25:39.064Z,50.60
2022-12-17T10:28:25.971Z,57.40
2022-12-17T10:31:11.976Z,45.63
2022-12-17T10:33:58.649Z,43.73
2022-12-17T10:36:45.659Z,60.30
2022-12-17T10:39:39.198Z,45.70
2022-12-17T10:42:38.699Z,50.47
2022-12-17T10:46:16.343Z,48.47
2022-12-17T10:49:05.701Z,47.47
2022-12-17T10:51:54.825Z,61.10
2022-12-17T10:54:49.060Z,54.93
2022-12-17T10:57:55.229Z,52.70
2022-12-17T11:00:47.370Z,54.20
2022-12-17T11:03:44.324Z,63.23
2022-12-17T11:06:32.924Z,64.40
2022-12-17T11:09:21.692Z,64.23
2022-12-17T11:12:07.657Z,60.27
2022-12-17T11:14:59.457Z,66.00
2022-12-17T11:17:45.945Z,61.83
2022-12-17T11:20:41.528Z,62.97
2022-12-17T11:23:31.660Z,70.93
2022-12-17T11:26:22.217Z,73.50
2022-12-17T11:29:07.997Z,73.53
2022-12-17T11:32:03.624Z,60.17
2022-12-17T11:34:59.824Z,81.10
2022-12-17T11:37:50.466Z,88.13
2022-12-17T11:40:55.792Z,65.47
2022-12-17T11:43:52.880Z,79.20
2022-12-17T11:46:38.886Z,63.93
2022-12-17T11:49:30.305Z,60.70
2022-12-17T11:52:24.782Z,74.80
2022-12-17T11:55:16.335Z,78.67
2022-12-17T11:58:02.115Z,75.53
2022-12-17T12:00:50.205Z,82.70
2022-12-17T12:03:42.985Z,74.10
2022-12-17T12:06:34.832Z,73.87
2022-12-17T12:09:29.886Z,71.87
2022-12-17T12:12:15.757Z,75.87
2022-12-17T12:15:01.652Z,83.27
2022-12-17T12:17:52.343Z,85.67
2022-12-17T12:20:56.897Z,68.57
2022-12-17T12:24:01.367Z,64.00
2022-12-17T12:26:53.457Z,75.20
2022-12-17T12:29:44.981Z,73.03
2022-12-17T12:32:30.901Z,60.43
2022-12-17T12:35:17.219Z,60.57
2022-12-17T12:38:03.189Z,48.47
2022-12-17T12:40:49.165Z,54.73
2022-12-17T12:43:41.354Z,49.30
2022-12-17T12:46:29.594Z,42.53
2022-12-17T12:49:28.344Z,37.87
2022-12-17T12:52:15.525Z,51.63
2022-12-17T12:55:04.037Z,61.20
2022-12-17T12:57:49.970Z,46.63
2022-12-17T13:00:51.352Z,55.57
2022-12-17T13:03:39.768Z,49.53
2022-12-17T13:06:07.360Z,44.03
2022-12-17T13:08:34.733Z,46.63
2022-12-17T13:11:13.086Z,44.03
2022-12-17T13:13:55.952Z,46.97
2022-12-17T13:16:32.147Z,46.90
2022-12-17T13:19:03.255Z,49.17
2022-12-17T13:21:31.668Z,44.50
2022-12-17T13:24:01.881Z,44.70
2022-12-17T13:26:43.708Z,42.97
2022-12-17T13:29:22.963Z,43.77
2022-12-17T13:32:03.046Z,42.13
2022-12-17T13:34:42.333Z,39.47
2022-12-17T13:37:13.903Z,39.37
2022-12-17T13:40:00.183Z,48.17
2022-12-17T13:42:31.895Z,30.30
2022-12-17T13:45:00.016Z,41.17
2022-12-17T13:47:28.680Z,24.80
2022-12-17T13:50:32.797Z,36.60
2022-12-17T13:52:44.188Z,27.37
2022-12-17T13:55:17.478Z,26.63
2022-12-17T13:57:48.387Z,21.33
2022-12-17T14:00:26.244Z,31.37
2022-12-17T14:02:54.579Z,32.13
2022-12-17T14:05:24.165Z,27.43
2022-12-17T14:07:51.693Z,23.03
2022-12-17T14:10:19.574Z,24.67
2022-12-17T14:12:47.216Z,26.17
2022-12-17T14:15:32.398Z,38.77
2022-12-17T14:18:00.194Z,28.10
2022-12-17T14:20:29.300Z,34.17
2022-12-17T14:23:07.408Z,26.33
2022-12-17T14:25:38.708Z,38.40
2022-12-17T14:28:07.059Z,26.30
2022-12-17T14:30:46.279Z,18.77
2022-12-17T14:33:27.751Z,24.43
2022-12-17T14:35:58.939Z,31.47
2022-12-17T14:38:38.036Z,29.40
2022-12-17T14:41:28.910Z,31.20
2022-12-17T14:44:00.426Z,37.87
2022-12-17T14:46:28.650Z,30.87
2022-12-17T14:49:02.834Z,32.00
2022-12-17T14:51:43.349Z,39.93
2022-12-17T14:54:25.998Z,32.83
2022-12-17T14:56:54.735Z,25.60
2022-12-17T14:59:25.814Z,26.60
2022-12-17T15:01:56.134Z,22.47
2022-12-17T15:04:23.968Z,24.63
2022-12-17T15:06:53.800Z,23.50
2022-12-17T15:09:20.885Z,28.07
2022-12-17T15:11:49.084Z,19.53
2022-12-17T15:14:16.200Z,17.83
2022-12-17T15:16:43.363Z,24.40
2022-12-17T15:19:10.493Z,18.80
2022-12-17T15:21:37.629Z,17.87
2022-12-17T15:24:04.855Z,21.50
2022-12-17T15:26:31.922Z,21.90
2022-12-17T15:28:59.073Z,22.17
2022-12-17T15:31:27.600Z,23.27
2022-12-17T15:33:59.773Z,22.63
2022-12-17T15:36:26.899Z,29.90
2022-12-17T15:38:54.017Z,27.13
2022-12-17T15:41:39.641Z,23.07
2022-12-17T15:44:06.687Z,20.73
2022-12-17T15:46:33.890Z,19.63
2022-12-17T15:49:01.132Z,25.27
2022-12-17T15:51:28.168Z,19.37
2022-12-17T15:53:55.301Z,21.90
2022-12-17T15:56:23.742Z,23.53
2022-12-17T15:58:50.936Z,21.70
2022-12-17T16:01:18.188Z,24.70
2022-12-17T16:03:45.392Z,23.57
2022-12-17T16:06:12.811Z,16.57
2022-12-17T16:08:40.537Z,24.10
2022-12-17T16:11:09.235Z,22.83
2022-12-17T16:13:36.772Z,20.47
2022-12-17T16:16:04.549Z,21.97
2022-12-17T16:18:31.813Z,22.40
2022-12-17T16:21:03.332Z,18.17
2022-12-17T16:23:30.674Z,20.80
2022-12-17T16:25:58.884Z,25.20
2022-12-17T16:28:26.544Z,23.13
2022-12-17T16:31:07.826Z,20.23
2022-12-17T16:33:36.161Z,26.10
2022-12-17T16:36:03.915Z,22.47
2022-12-17T16:38:31.077Z,43.53
2022-12-17T16:40:58.993Z,27.53
2022-12-17T16:43:26.531Z,22.57
2022-12-17T16:45:54.544Z,24.87
2022-12-17T16:48:22.695Z,20.43
2022-12-17T16:50:50.614Z,21.80
2022-12-17T16:53:18.377Z,18.07
2022-12-17T16:55:49.565Z,20.60
2022-12-17T16:58:17.242Z,20.37
2022-12-17T17:00:46.109Z,23.47
2022-12-17T17:03:13.372Z,19.43
2022-12-17T17:05:40.829Z,20.00
2022-12-17T17:08:07.856Z,28.47
2022-12-17T17:10:35.933Z,20.30
2022-12-17T17:13:03.203Z,26.17
2022-12-17T17:15:30.283Z,25.97
2022-12-17T17:18:02.397Z,24.00
2022-12-17T17:20:32.417Z,22.50
2022-12-17T17:22:59.827Z,25.17
2022-12-17T17:25:43.882Z,28.97
2022-12-17T17:28:14.042Z,25.27
2022-12-17T17:30:41.102Z,21.67
2022-12-17T17:33:08.162Z,25.90
2022-12-17T17:35:35.226Z,27.50
2022-12-17T17:38:02.281Z,19.33
2022-12-17T17:40:29.313Z,25.00
2022-12-17T17:42:56.363Z,19.53
2022-12-17T17:45:23.399Z,32.00
2022-12-17T17:47:50.488Z,32.57
2022-12-17T17:50:17.542Z,52.80
2022-12-17T17:52:44.628Z,206.13
2022-12-17T17:55:11.679Z,889.27
2022-12-17T17:57:38.751Z,1046.40
2022-12-17T18:00:06.352Z,351.83
2022-12-17T18:02:33.645Z,850.33
2022-12-17T18:05:00.864Z,1999.90
2022-12-17T18:07:28.468Z,508.43
2022-12-17T18:09:56.271Z,342.27
2022-12-17T18:12:42.655Z,395.07
2022-12-17T18:15:15.272Z,286.27
2022-12-17T18:17:44.491Z,112.87
2022-12-17T18:20:11.839Z,45.87
2022-12-17T18:22:38.897Z,19.53
2022-12-17T18:25:06.117Z,23.10
2022-12-17T18:27:33.177Z,18.67
2022-12-17T18:30:00.240Z,18.63
2022-12-17T18:32:27.315Z,18.77
2022-12-17T18:34:54.428Z,17.63
2022-12-17T18:37:21.570Z,20.07
2022-12-17T18:39:49.225Z,19.50
2022-12-17T18:42:34.994Z,22.57
2022-12-17T18:45:02.104Z,23.87
2022-12-17T18:47:29.166Z,16.37
2022-12-17T18:49:56.229Z,24.47
2022-12-17T18:52:24.605Z,31.97
2022-12-17T18:54:51.730Z,19.80
2022-12-17T18:57:18.847Z,20.67
2022-12-17T18:59:45.910Z,22.47
2022-12-17T19:02:13.786Z,21.90
2022-12-17T19:04:41.124Z,26.30
2022-12-17T19:07:08.239Z,20.13
2022-12-17T19:09:36.061Z,29.47
2022-12-17T19:12:04.590Z,28.40
2022-12-17T19:14:31.631Z,24.47
2022-12-17T19:16:58.809Z,24.80
2022-12-17T19:19:26.370Z,24.93
2022-12-17T19:21:56.831Z,17.10
2022-12-17T19:24:24.301Z,24.20
2022-12-17T19:26:51.934Z,21.73
2022-12-17T19:29:20.213Z,23.73
2022-12-17T19:31:47.450Z,16.17
2022-12-17T19:34:15.896Z,18.73
2022-12-17T19:36:43.774Z,20.77
2022-12-17T19:39:18.334Z,17.57
2022-12-17T19:41:45.669Z,16.13
2022-12-17T19:44:14.101Z,18.93
2022-12-17T19:46:41.241Z,147.37
2022-12-17T19:49:10.638Z,25.63
2022-12-17T19:51:39.568Z,15.73
2022-12-17T19:54:09.080Z,17.40
2022-12-17T19:56:36.456Z,18.67
2022-12-17T19:59:06.807Z,16.67
2022-12-17T20:01:35.358Z,21.10
2022-12-17T20:04:03.253Z,19.40
2022-12-17T20:06:31.905Z,19.53
2022-12-17T20:08:59.694Z,19.27
2022-12-17T20:11:33.020Z,16.33
2022-12-17T20:14:11.719Z,15.27
2022-12-17T20:16:40.439Z,22.00
2022-12-17T20:19:08.694Z,20.13
2022-12-17T20:21:35.722Z,21.33
2022-12-17T20:24:02.781Z,29.60
2022-12-17T20:26:33.186Z,25.60
2022-12-17T20:29:00.567Z,24.73
2022-12-17T20:31:28.469Z,20.30
2022-12-17T20:33:55.840Z,20.97
2022-12-17T20:36:23.517Z,20.33
2022-12-17T20:38:50.759Z,19.67
2022-12-17T20:41:19.828Z,19.10
2022-12-17T20:43:47.116Z,21.67
2022-12-17T20:46:14.271Z,20.03
2022-12-17T20:48:42.427Z,24.80
2022-12-17T20:51:14.665Z,20.20
2022-12-17T20:53:42.083Z,21.57
2022-12-17T20:56:16.124Z,17.30
2022-12-17T20:58:43.399Z,26.23
2022-12-17T21:01:11.928Z,21.87
2022-12-17T21:03:39.618Z,17.23
2022-12-17T21:06:08.206Z,20.20
2022-12-17T21:08:35.826Z,22.80
2022-12-17T21:11:03.213Z,16.43
2022-12-17T21:13:30.629Z,18.30
2022-12-17T21:16:01.940Z,18.87
2022-12-17T21:18:29.842Z,23.20
2022-12-17T21:20:58.307Z,21.13
2022-12-17T21:23:25.448Z,27.03
2022-12-17T21:26:02.048Z,16.00
2022-12-17T21:28:30.459Z,18.83
2022-12-17T21:30:57.877Z,22.23
2022-12-17T21:33:25.188Z,23.13
2022-12-17T21:35:58.687Z,21.93
2022-12-17T21:38:25.966Z,17.80
2022-12-17T21:40:53.044Z,20.27
2022-12-17T21:43:20.109Z,19.87
2022-12-17T21:45:47.584Z,24.70
2022-12-17T21:48:15.337Z,19.97
2022-12-17T21:50:43.534Z,23.03
2022-12-17T21:53:11.761Z,20.10
2022-12-17T21:55:39.104Z,23.73
2022-12-17T21:58:06.368Z,25.47
2022-12-17T22:00:33.497Z,23.80
2022-12-17T22:03:00.632Z,21.60
2022-12-17T22:05:28.426Z,21.23
2022-12-17T22:07:55.474Z,26.63
2022-12-17T22:10:36.492Z,22.47
2022-12-17T22:13:31.518Z,17.33
2022-12-17T22:15:58.606Z,17.40
2022-12-17T22:18:25.713Z,20.10
2022-12-17T22:21:02.392Z,26.17
2022-12-17T22:23:29.584Z,32.20
2022-12-17T22:25:56.975Z,30.83
2022-12-17T22:28:24.027Z,21.27
2022-12-17T22:31:11.342Z,19.83
2022-12-17T22:33:52.483Z,17.47
2022-12-17T22:39:08.258Z,20.50
2022-12-17T22:42:48.373Z,19.47
2022-12-17T22:44:39.383Z,23.60
2022-12-17T22:45:11.631Z,22.83
2022-12-17T22:47:39.389Z,19.03
2022-12-17T22:50:06.778Z,38.17
2022-12-17T22:52:34.425Z,23.20
2022-12-17T22:55:02.155Z,22.53
2022-12-17T22:57:35.868Z,25.50
2022-12-17T23:00:05.906Z,26.70
2022-12-17T23:02:32.994Z,24.20
2022-12-17T23:05:00.080Z,28.47
2022-12-17T23:07:31.737Z,24.60
2022-12-17T23:09:59.286Z,23.17
2022-12-17T23:12:45.208Z,22.47
2022-12-17T23:15:12.365Z,19.63
2022-12-17T23:17:39.434Z,25.30
2022-12-17T23:20:06.851Z,21.03
2022-12-17T23:22:33.894Z,25.63
2022-12-17T23:25:00.990Z,18.30
2022-12-17T23:27:28.096Z,18.90
2022-12-17T23:29:55.229Z,27.17
2022-12-17T23:32:22.291Z,19.40
2022-12-17T23:34:49.341Z,17.30
2022-12-17T23:37:16.493Z,23.17
2022-12-17T23:39:43.544Z,18.63
2022-12-17T23:42:10.742Z,19.43
2022-12-17T23:44:37.819Z,22.33
2022-12-17T23:47:04.929Z,21.77
2022-12-17T23:49:32.061Z,26.23
2022-12-17T23:51:59.198Z,28.67
2022-12-17T23:54:26.305Z,27.57
2022-12-17T23:56:53.370Z,23.73
2022-12-17T23:59:20.420Z,16.70
